sensor_id;sensor_type;location;lat;lon;timestamp;pressure;altitude;pressure_sealevel;temperature;humidity
36092;BME280;22147;52.388;13.390;2023-11-19T00:00:33;100803.44;;;1.32;100.00
36092;BME280;22147;52.388;13.390;2023-11-19T00:03:04;100787.56;;;1.29;100.00
36092;BME280;22147;52.388;13.390;2023-11-19T00:05:35;100785.31;;;1.26;100.00
36092;BME280;22147;52.388;13.390;2023-11-19T00:08:05;100774.38;;;1.26;100.00
36092;BME280;22147;52.388;13.390;2023-11-19T00:10:36;100774.94;;;1.28;100.00
36092;BME280;22147;52.388;13.390;2023-11-19T00:13:06;100763.19;;;1.28;100.00
36092;BME280;22147;52.388;13.390;2023-11-19T00:15:36;100751.97;;;1.29;100.00
36092;BME280;22147;52.388;13.390;2023-11-19T00:18:06;100748.13;;;1.30;100.00
36092;BME280;22147;52.388;13.390;2023-11-19T00:20:37;100743.78;;;1.29;100.00
36092;BME280;22147;52.388;13.390;2023-11-19T00:23:07;100738.84;;;1.31;100.00
36092;BME280;22147;52.388;13.390;2023-11-19T00:25:37;100731.72;;;1.35;100.00
36092;BME280;22147;52.388;13.390;2023-11-19T00:28:08;100734.47;;;1.35;100.00
36092;BME280;22147;52.388;13.390;2023-11-19T00:30:38;100733.91;;;1.33;100.00
36092;BME280;22147;52.388;13.390;2023-11-19T00:33:10;100734.19;;;1.32;100.00
36092;BME280;22147;52.388;13.390;2023-11-19T00:35:40;100736.66;;;1.33;100.00
36092;BME280;22147;52.388;13.390;2023-11-19T00:38:10;100724.38;;;1.36;100.00
36092;BME280;22147;52.388;13.390;2023-11-19T00:40:40;100718.34;;;1.39;100.00
36092;BME280;22147;52.388;13.390;2023-11-19T00:43:10;100712.63;;;1.40;100.00
36092;BME280;22147;52.388;13.390;2023-11-19T00:45:40;100696.44;;;1.39;100.00
36092;BME280;22147;52.388;13.390;2023-11-19T00:48:11;100692.66;;;1.45;100.00
36092;BME280;22147;52.388;13.390;2023-11-19T00:50:41;100685.00;;;1.47;100.00
36092;BME280;22147;52.388;13.390;2023-11-19T00:53:14;100678.97;;;1.45;100.00
36092;BME280;22147;52.388;13.390;2023-11-19T00:55:44;100665.53;;;1.43;100.00
36092;BME280;22147;52.388;13.390;2023-11-19T00:58:16;100663.91;;;1.42;100.00
36092;BME280;22147;52.388;13.390;2023-11-19T01:00:47;100648.03;;;1.45;100.00
36092;BME280;22147;52.388;13.390;2023-11-19T01:03:17;100635.44;;;1.43;100.00
36092;BME280;22147;52.388;13.390;2023-11-19T01:05:48;100631.06;;;1.48;100.00
36092;BME280;22147;52.388;13.390;2023-11-19T01:08:16;100633.28;;;1.51;100.00
36092;BME280;22147;52.388;13.390;2023-11-19T01:10:45;100627.25;;;1.49;100.00
36092;BME280;22147;52.388;13.390;2023-11-19T01:13:13;100618.50;;;1.47;100.00
36092;BME280;22147;52.388;13.390;2023-11-19T01:15:41;100598.50;;;1.46;100.00
36092;BME280;22147;52.388;13.390;2023-11-19T01:18:10;100597.97;;;1.44;100.00
36092;BME280;22147;52.388;13.390;2023-11-19T01:20:38;100580.72;;;1.49;100.00
36092;BME280;22147;52.388;13.390;2023-11-19T01:23:07;100574.44;;;1.53;100.00
36092;BME280;22147;52.388;13.390;2023-11-19T01:25:35;100556.91;;;1.59;100.00
36092;BME280;22147;52.388;13.390;2023-11-19T01:28:04;100552.53;;;1.53;100.00
36092;BME280;22147;52.388;13.390;2023-11-19T01:30:32;100547.06;;;1.53;100.00
36092;BME280;22147;52.388;13.390;2023-11-19T01:33:00;100535.84;;;1.55;100.00
36092;BME280;22147;52.388;13.390;2023-11-19T01:35:29;100541.03;;;1.61;100.00
36092;BME280;22147;52.388;13.390;2023-11-19T01:37:57;100536.66;;;1.66;100.00
36092;BME280;22147;52.388;13.390;2023-11-19T01:40:26;100536.91;;;1.69;100.00
36092;BME280;22147;52.388;13.390;2023-11-19T01:42:54;100530.09;;;1.67;100.00
36092;BME280;22147;52.388;13.390;2023-11-19T01:45:33;100522.13;;;1.65;100.00
36092;BME280;22147;52.388;13.390;2023-11-19T01:48:03;100517.50;;;1.66;100.00
36092;BME280;22147;52.388;13.390;2023-11-19T01:50:34;100507.38;;;1.66;100.00
36092;BME280;22147;52.388;13.390;2023-11-19T01:53:05;100508.44;;;1.65;100.00
36092;BME280;22147;52.388;13.390;2023-11-19T01:55:35;100501.63;;;1.68;100.00
36092;BME280;22147;52.388;13.390;2023-11-19T01:58:05;100483.28;;;1.68;100.00
36092;BME280;22147;52.388;13.390;2023-11-19T02:00:37;100475.88;;;1.69;100.00
36092;BME280;22147;52.388;13.390;2023-11-19T02:03:09;100472.88;;;1.70;100.00
36092;BME280;22147;52.388;13.390;2023-11-19T02:05:40;100479.69;;;1.73;100.00
36092;BME280;22147;52.388;13.390;2023-11-19T02:08:10;100467.09;;;1.77;100.00
36092;BME280;22147;52.388;13.390;2023-11-19T02:10:43;100461.91;;;1.75;100.00
36092;BME280;22147;52.388;13.390;2023-11-19T02:13:12;100452.31;;;1.73;100.00
36092;BME280;22147;52.388;13.390;2023-11-19T02:15:43;100427.13;;;1.71;100.00
36092;BME280;22147;52.388;13.390;2023-11-19T02:18:24;100404.41;;;1.75;100.00
36092;BME280;22147;52.388;13.390;2023-11-19T02:20:59;100393.16;;;1.77;100.00
36092;BME280;22147;52.388;13.390;2023-11-19T02:23:30;100376.19;;;1.80;100.00
36092;BME280;22147;52.388;13.390;2023-11-19T02:26:21;100383.56;;;1.79;100.00
36092;BME280;22147;52.388;13.390;2023-11-19T02:28:56;100375.63;;;1.83;100.00
36092;BME280;22147;52.388;13.390;2023-11-19T02:31:26;100370.44;;;1.81;100.00
36092;BME280;22147;52.388;13.390;2023-11-19T02:33:56;100368.53;;;1.77;100.00
36092;BME280;22147;52.388;13.390;2023-11-19T02:36:26;100350.47;;;1.76;100.00
36092;BME280;22147;52.388;13.390;2023-11-19T02:38:55;100342.81;;;1.78;100.00
36092;BME280;22147;52.388;13.390;2023-11-19T02:41:25;100343.06;;;1.76;100.00
36092;BME280;22147;52.388;13.390;2023-11-19T02:43:55;100346.34;;;1.78;100.00
36092;BME280;22147;52.388;13.390;2023-11-19T02:46:23;100346.06;;;1.75;100.00
36092;BME280;22147;52.388;13.390;2023-11-19T02:48:53;100349.63;;;1.75;100.00
36092;BME280;22147;52.388;13.390;2023-11-19T02:51:23;100345.81;;;1.76;100.00
36092;BME280;22147;52.388;13.390;2023-11-19T02:53:53;100330.72;;;1.79;100.00
36092;BME280;22147;52.388;13.390;2023-11-19T02:56:23;100317.63;;;1.76;100.00
36092;BME280;22147;52.388;13.390;2023-11-19T02:58:56;100297.06;;;1.78;100.00
36092;BME280;22147;52.388;13.390;2023-11-19T03:01:26;100291.00;;;1.81;100.00
36092;BME280;22147;52.388;13.390;2023-11-19T03:04:01;100296.50;;;1.81;100.00
36092;BME280;22147;52.388;13.390;2023-11-19T03:06:33;100286.63;;;1.86;100.00
36092;BME280;22147;52.388;13.390;2023-11-19T03:09:03;100287.72;;;1.85;100.00
36092;BME280;22147;52.388;13.390;2023-11-19T03:11:38;100278.94;;;1.88;100.00
36092;BME280;22147;52.388;13.390;2023-11-19T03:14:08;100272.91;;;1.86;100.00
36092;BME280;22147;52.388;13.390;2023-11-19T03:16:38;100281.13;;;1.86;100.00
36092;BME280;22147;52.388;13.390;2023-11-19T03:19:08;100283.59;;;1.87;100.00
36092;BME280;22147;52.388;13.390;2023-11-19T03:21:38;100278.13;;;1.87;100.00
36092;BME280;22147;52.388;13.390;2023-11-19T03:24:08;100276.47;;;1.91;100.00
36092;BME280;22147;52.388;13.390;2023-11-19T03:26:38;100266.88;;;1.94;100.00
36092;BME280;22147;52.388;13.390;2023-11-19T03:29:08;100264.69;;;1.91;100.00
36092;BME280;22147;52.388;13.390;2023-11-19T03:31:42;100264.94;;;1.94;100.00
36092;BME280;22147;52.388;13.390;2023-11-19T03:34:12;100256.22;;;1.87;100.00
36092;BME280;22147;52.388;13.390;2023-11-19T03:36:40;100259.22;;;1.91;100.00
36092;BME280;22147;52.388;13.390;2023-11-19T03:39:09;100257.28;;;1.91;100.00
36092;BME280;22147;52.388;13.390;2023-11-19T03:41:37;100251.28;;;1.84;100.00
36092;BME280;22147;52.388;13.390;2023-11-19T03:44:10;100244.75;;;1.80;100.00
36092;BME280;22147;52.388;13.390;2023-11-19T03:46:40;100243.91;;;1.85;100.00
36092;BME280;22147;52.388;13.390;2023-11-19T03:49:11;100236.25;;;1.81;100.00
36092;BME280;22147;52.388;13.390;2023-11-19T03:51:41;100217.97;;;1.72;100.00
36092;BME280;22147;52.388;13.390;2023-11-19T03:54:11;100209.75;;;1.67;100.00
36092;BME280;22147;52.388;13.390;2023-11-19T03:56:41;100210.56;;;1.67;100.00
36092;BME280;22147;52.388;13.390;2023-11-19T03:59:11;100216.34;;;1.60;100.00
36092;BME280;22147;52.388;13.390;2023-11-19T04:01:41;100201.03;;;1.59;100.00
36092;BME280;22147;52.388;13.390;2023-11-19T04:04:12;100182.69;;;1.60;100.00
36092;BME280;22147;52.388;13.390;2023-11-19T04:06:42;100164.13;;;1.57;100.00
36092;BME280;22147;52.388;13.390;2023-11-19T04:09:12;100158.34;;;1.58;100.00
36092;BME280;22147;52.388;13.390;2023-11-19T04:11:42;100140.81;;;1.59;100.00
36092;BME280;22147;52.388;13.390;2023-11-19T04:14:12;100134.53;;;1.54;100.00
36092;BME280;22147;52.388;13.390;2023-11-19T04:16:42;100149.03;;;1.59;100.00
36092;BME280;22147;52.388;13.390;2023-11-19T04:19:13;100144.63;;;1.63;100.00
36092;BME280;22147;52.388;13.390;2023-11-19T04:21:43;100128.22;;;1.58;100.00
36092;BME280;22147;52.388;13.390;2023-11-19T04:24:13;100112.13;;;1.52;100.00
36092;BME280;22147;52.388;13.390;2023-11-19T04:26:42;100105.28;;;1.49;100.00
36092;BME280;22147;52.388;13.390;2023-11-19T04:29:15;100094.09;;;1.46;100.00
36092;BME280;22147;52.388;13.390;2023-11-19T04:31:46;100092.19;;;1.46;100.00
36092;BME280;22147;52.388;13.390;2023-11-19T04:34:16;100076.84;;;1.45;100.00
36092;BME280;22147;52.388;13.390;2023-11-19T04:36:46;100085.88;;;1.46;100.00
36092;BME280;22147;52.388;13.390;2023-11-19T04:39:16;100084.22;;;1.50;100.00
36092;BME280;22147;52.388;13.390;2023-11-19T04:41:51;100085.03;;;1.50;100.00
36092;BME280;22147;52.388;13.390;2023-11-19T04:44:22;100079.81;;;1.54;100.00
36092;BME280;22147;52.388;13.390;2023-11-19T04:46:52;100088.56;;;1.56;100.00
36092;BME280;22147;52.388;13.390;2023-11-19T04:49:22;100100.03;;;1.58;100.00
36092;BME280;22147;52.388;13.390;2023-11-19T04:51:52;100098.91;;;1.64;100.00
36092;BME280;22147;52.388;13.390;2023-11-19T04:54:22;100102.47;;;1.65;100.00
36092;BME280;22147;52.388;13.390;2023-11-19T04:56:52;100100.25;;;1.67;100.00
36092;BME280;22147;52.388;13.390;2023-11-19T04:59:22;100103.81;;;1.67;100.00
36092;BME280;22147;52.388;13.390;2023-11-19T05:01:52;100104.66;;;1.68;100.00
36092;BME280;22147;52.388;13.390;2023-11-19T05:04:22;100087.69;;;1.60;100.00
36092;BME280;22147;52.388;13.390;2023-11-19T05:06:52;100080.88;;;1.58;100.00
36092;BME280;22147;52.388;13.390;2023-11-19T05:09:22;100071.59;;;1.59;100.00
36092;BME280;22147;52.388;13.390;2023-11-19T05:11:52;100067.19;;;1.58;100.00
36092;BME280;22147;52.388;13.390;2023-11-19T05:14:19;100060.38;;;1.55;100.00
36092;BME280;22147;52.388;13.390;2023-11-19T05:16:50;100052.72;;;1.52;100.00
36092;BME280;22147;52.388;13.390;2023-11-19T05:19:20;100051.63;;;1.53;100.00
36092;BME280;22147;52.388;13.390;2023-11-19T05:21:48;100052.41;;;1.59;100.00
36092;BME280;22147;52.388;13.390;2023-11-19T05:24:20;100032.19;;;1.55;100.00
36092;BME280;22147;52.388;13.390;2023-11-19T05:26:48;100036.53;;;1.61;100.00
36092;BME280;22147;52.388;13.390;2023-11-19T05:29:20;100033.53;;;1.57;100.00
36092;BME280;22147;52.388;13.390;2023-11-19T05:31:48;100024.50;;;1.57;100.00
36092;BME280;22147;52.388;13.390;2023-11-19T05:34:16;100025.31;;;1.57;100.00
36092;BME280;22147;52.388;13.390;2023-11-19T05:36:45;100013.56;;;1.57;100.00
36092;BME280;22147;52.388;13.390;2023-11-19T05:39:13;100014.31;;;1.62;100.00
36092;BME280;22147;52.388;13.390;2023-11-19T05:41:42;100011.59;;;1.62;100.00
36092;BME280;22147;52.388;13.390;2023-11-19T05:44:10;100001.69;;;1.67;100.00
36092;BME280;22147;52.388;13.390;2023-11-19T05:46:39;100001.16;;;1.65;100.00
36092;BME280;22147;52.388;13.390;2023-11-19T05:49:11;99988.06;;;1.61;100.00
36092;BME280;22147;52.388;13.390;2023-11-19T05:51:41;99988.94;;;1.57;100.00
36092;BME280;22147;52.388;13.390;2023-11-19T05:54:10;99985.06;;;1.58;100.00
36092;BME280;22147;52.388;13.390;2023-11-19T05:56:41;99980.41;;;1.58;100.00
36092;BME280;22147;52.388;13.390;2023-11-19T05:59:11;99979.59;;;1.58;100.00
36092;BME280;22147;52.388;13.390;2023-11-19T06:01:44;99967.31;;;1.55;100.00
36092;BME280;22147;52.388;13.390;2023-11-19T06:04:14;99962.63;;;1.61;100.00
36092;BME280;22147;52.388;13.390;2023-11-19T06:06:44;99956.28;;;1.66;100.00
36092;BME280;22147;52.388;13.390;2023-11-19T06:09:14;99958.50;;;1.63;100.00
36092;BME280;22147;52.388;13.390;2023-11-19T06:11:44;99958.25;;;1.60;100.00
36092;BME280;22147;52.388;13.390;2023-11-19T06:14:14;99957.97;;;1.61;100.00
36092;BME280;22147;52.388;13.390;2023-11-19T06:16:44;99946.47;;;1.59;100.00
36092;BME280;22147;52.388;13.390;2023-11-19T06:19:14;99935.25;;;1.61;100.00
36092;BME280;22147;52.388;13.390;2023-11-19T06:21:44;99942.88;;;1.64;100.00
36092;BME280;22147;52.388;13.390;2023-11-19T06:24:14;99926.44;;;1.64;100.00
36092;BME280;22147;52.388;13.390;2023-11-19T06:26:44;99916.31;;;1.65;100.00
36092;BME280;22147;52.388;13.390;2023-11-19T06:29:14;99906.75;;;1.62;100.00
36092;BME280;22147;52.388;13.390;2023-11-19T06:31:47;99898.22;;;1.69;100.00
36092;BME280;22147;52.388;13.390;2023-11-19T06:34:17;99909.97;;;1.69;100.00
36092;BME280;22147;52.388;13.390;2023-11-19T06:36:47;99909.16;;;1.69;100.00
36092;BME280;22147;52.388;13.390;2023-11-19T06:39:18;99903.13;;;1.72;100.00
36092;BME280;22147;52.388;13.390;2023-11-19T06:41:48;99895.97;;;1.76;100.00
36092;BME280;22147;52.388;13.390;2023-11-19T06:44:18;99888.56;;;1.76;100.00
36092;BME280;22147;52.388;13.390;2023-11-19T06:46:48;99883.88;;;1.77;100.00
36092;BME280;22147;52.388;13.390;2023-11-19T06:49:18;99895.13;;;1.75;100.00
36092;BME280;22147;52.388;13.390;2023-11-19T06:51:48;99887.75;;;1.76;100.00
36092;BME280;22147;52.388;13.390;2023-11-19T06:54:18;99881.16;;;1.77;100.00
36092;BME280;22147;52.388;13.390;2023-11-19T06:56:48;99861.69;;;1.78;100.00
36092;BME280;22147;52.388;13.390;2023-11-19T06:59:18;99863.03;;;1.81;100.00
36092;BME280;22147;52.388;13.390;2023-11-19T07:01:49;99855.34;;;1.83;100.00
36092;BME280;22147;52.388;13.390;2023-11-19T07:04:18;99846.00;;;1.84;100.00
36092;BME280;22147;52.388;13.390;2023-11-19T07:06:48;99852.34;;;1.85;100.00
36092;BME280;22147;52.388;13.390;2023-11-19T07:09:17;99845.72;;;1.86;100.00
36092;BME280;22147;52.388;13.390;2023-11-19T07:11:45;99859.66;;;1.89;100.00
36092;BME280;22147;52.388;13.390;2023-11-19T07:14:14;99871.91;;;1.97;100.00
36092;BME280;22147;52.388;13.390;2023-11-19T07:16:42;99873.78;;;2.01;100.00
36092;BME280;22147;52.388;13.390;2023-11-19T07:19:10;99869.09;;;2.02;100.00
36092;BME280;22147;52.388;13.390;2023-11-19T07:21:42;99869.03;;;2.07;100.00
36092;BME280;22147;52.388;13.390;2023-11-19T07:24:13;99861.66;;;2.08;100.00
36092;BME280;22147;52.388;13.390;2023-11-19T07:26:46;99857.22;;;2.12;100.00
36092;BME280;22147;52.388;13.390;2023-11-19T07:29:16;99850.34;;;2.14;100.00
36092;BME280;22147;52.388;13.390;2023-11-19T07:31:58;99847.53;;;2.19;100.00
36092;BME280;22147;52.388;13.390;2023-11-19T07:34:28;99852.72;;;2.21;100.00
36092;BME280;22147;52.388;13.390;2023-11-19T07:36:58;99846.06;;;2.27;100.00
36092;BME280;22147;52.388;13.390;2023-11-19T07:39:32;99850.13;;;2.30;100.00
36092;BME280;22147;52.388;13.390;2023-11-19T07:42:02;99859.91;;;2.36;100.00
36092;BME280;22147;52.388;13.390;2023-11-19T07:44:33;99863.34;;;2.47;100.00
36092;BME280;22147;52.388;13.390;2023-11-19T07:47:01;99854.59;;;2.44;100.00
36092;BME280;22147;52.388;13.390;2023-11-19T07:49:29;99851.56;;;2.46;100.00
36092;BME280;22147;52.388;13.390;2023-11-19T07:51:58;99856.66;;;2.53;100.00
36092;BME280;22147;52.388;13.390;2023-11-19T07:54:27;99862.06;;;2.58;100.00
36092;BME280;22147;52.388;13.390;2023-11-19T07:56:58;99867.78;;;2.61;100.00
36092;BME280;22147;52.388;13.390;2023-11-19T07:59:26;99871.56;;;2.65;100.00
36092;BME280;22147;52.388;13.390;2023-11-19T08:01:54;99858.09;;;2.69;100.00
36092;BME280;22147;52.388;13.390;2023-11-19T08:04:23;99861.03;;;2.73;100.00
36092;BME280;22147;52.388;13.390;2023-11-19T08:06:51;99847.03;;;2.74;100.00
36092;BME280;22147;52.388;13.390;2023-11-19T08:09:23;99848.88;;;2.79;100.00
36092;BME280;22147;52.388;13.390;2023-11-19T08:11:53;99855.13;;;2.84;100.00
36092;BME280;22147;52.388;13.390;2023-11-19T08:14:26;99862.88;;;2.96;100.00
36092;BME280;22147;52.388;13.390;2023-11-19T08:16:56;99851.03;;;3.01;100.00
36092;BME280;22147;52.388;13.390;2023-11-19T08:19:26;99857.03;;;3.03;100.00
36092;BME280;22147;52.388;13.390;2023-11-19T08:22:00;99851.44;;;3.08;100.00
36092;BME280;22147;52.388;13.390;2023-11-19T08:24:30;99844.25;;;3.12;100.00
36092;BME280;22147;52.388;13.390;2023-11-19T08:27:00;99841.94;;;3.19;100.00
36092;BME280;22147;52.388;13.390;2023-11-19T08:29:32;99846.16;;;3.31;100.00
36092;BME280;22147;52.388;13.390;2023-11-19T08:32:02;99833.84;;;3.42;100.00
36092;BME280;22147;52.388;13.390;2023-11-19T08:34:33;99836.44;;;3.52;100.00
36092;BME280;22147;52.388;13.390;2023-11-19T08:37:03;99834.09;;;3.59;100.00
36092;BME280;22147;52.388;13.390;2023-11-19T08:39:33;99823.84;;;3.65;100.00
36092;BME280;22147;52.388;13.390;2023-11-19T08:42:04;99818.22;;;3.70;100.00
36092;BME280;22147;52.388;13.390;2023-11-19T08:44:35;99825.16;;;3.81;100.00
36092;BME280;22147;52.388;13.390;2023-11-19T08:47:05;99835.53;;;3.84;100.00
36092;BME280;22147;52.388;13.390;2023-11-19T08:49:33;99836.25;;;3.90;100.00
36092;BME280;22147;52.388;13.390;2023-11-19T08:52:02;99830.34;;;3.97;100.00
36092;BME280;22147;52.388;13.390;2023-11-19T08:54:30;99822.72;;;4.07;100.00
36092;BME280;22147;52.388;13.390;2023-11-19T08:56:59;99825.47;;;4.21;100.00
36092;BME280;22147;52.388;13.390;2023-11-19T08:59:27;99837.06;;;4.32;100.00
36092;BME280;22147;52.388;13.390;2023-11-19T09:01:56;99837.22;;;4.36;100.00
36092;BME280;22147;52.388;13.390;2023-11-19T09:04:24;99828.97;;;4.36;100.00
36092;BME280;22147;52.388;13.390;2023-11-19T09:06:53;99822.69;;;4.35;100.00
36092;BME280;22147;52.388;13.390;2023-11-19T09:09:21;99833.56;;;4.40;100.00
36092;BME280;22147;52.388;13.390;2023-11-19T09:11:49;99840.56;;;4.46;100.00
36092;BME280;22147;52.388;13.390;2023-11-19T09:14:18;99830.28;;;4.52;100.00
36092;BME280;22147;52.388;13.390;2023-11-19T09:16:46;99829.34;;;4.57;100.00
36092;BME280;22147;52.388;13.390;2023-11-19T09:19:15;99836.44;;;4.72;100.00
36092;BME280;22147;52.388;13.390;2023-11-19T09:21:43;99832.72;;;4.90;100.00
36092;BME280;22147;52.388;13.390;2023-11-19T09:24:12;99840.84;;;5.18;100.00
36092;BME280;22147;52.388;13.390;2023-11-19T09:26:43;99834.31;;;5.36;100.00
36092;BME280;22147;52.388;13.390;2023-11-19T09:29:11;99828.06;;;5.44;100.00
36092;BME280;22147;52.388;13.390;2023-11-19T09:31:44;99823.06;;;5.46;100.00
36092;BME280;22147;52.388;13.390;2023-11-19T09:34:14;99816.09;;;5.49;100.00
36092;BME280;22147;52.388;13.390;2023-11-19T09:36:44;99817.44;;;5.60;100.00
36092;BME280;22147;52.388;13.390;2023-11-19T09:39:15;99826.44;;;5.83;100.00
36092;BME280;22147;52.388;13.390;2023-11-19T09:41:47;99828.38;;;6.05;100.00
36092;BME280;22147;52.388;13.390;2023-11-19T09:44:18;99830.69;;;6.29;100.00
36092;BME280;22147;52.388;13.390;2023-11-19T09:46:49;99829.91;;;6.64;100.00
36092;BME280;22147;52.388;13.390;2023-11-19T09:49:25;99823.78;;;6.84;100.00
36092;BME280;22147;52.388;13.390;2023-11-19T09:51:59;99823.44;;;7.03;100.00
36092;BME280;22147;52.388;13.390;2023-11-19T09:54:29;99810.72;;;7.28;100.00
36092;BME280;22147;52.388;13.390;2023-11-19T09:57:02;99811.31;;;7.43;100.00
36092;BME280;22147;52.388;13.390;2023-11-19T09:59:35;99802.97;;;7.69;100.00
36092;BME280;22147;52.388;13.390;2023-11-19T10:02:09;99816.78;;;8.07;100.00
36092;BME280;22147;52.388;13.390;2023-11-19T10:04:42;99810.06;;;8.38;100.00
36092;BME280;22147;52.388;13.390;2023-11-19T10:07:14;99808.38;;;8.54;100.00
36092;BME280;22147;52.388;13.390;2023-11-19T10:09:44;99814.22;;;8.62;100.00
36092;BME280;22147;52.388;13.390;2023-11-19T10:12:15;99814.78;;;8.67;100.00
36092;BME280;22147;52.388;13.390;2023-11-19T10:14:45;99815.75;;;8.71;100.00
36092;BME280;22147;52.388;13.390;2023-11-19T10:17:17;99808.19;;;8.81;100.00
36092;BME280;22147;52.388;13.390;2023-11-19T10:19:47;99811.47;;;8.74;100.00
36092;BME280;22147;52.388;13.390;2023-11-19T10:22:18;99815.06;;;8.53;100.00
36092;BME280;22147;52.388;13.390;2023-11-19T10:24:48;99805.03;;;8.40;100.00
36092;BME280;22147;52.388;13.390;2023-11-19T10:27:24;99806.50;;;8.38;100.00
36092;BME280;22147;52.388;13.390;2023-11-19T10:29:59;99811.25;;;8.37;100.00
36092;BME280;22147;52.388;13.390;2023-11-19T10:32:29;99802.84;;;8.25;100.00
36092;BME280;22147;52.388;13.390;2023-11-19T10:35:06;99807.91;;;8.23;100.00
36092;BME280;22147;52.388;13.390;2023-11-19T10:37:37;99789.59;;;8.09;100.00
36092;BME280;22147;52.388;13.390;2023-11-19T10:40:06;99796.75;;;8.10;100.00
36092;BME280;22147;52.388;13.390;2023-11-19T10:42:41;99801.97;;;8.33;100.00
36092;BME280;22147;52.388;13.390;2023-11-19T10:45:22;99803.59;;;8.64;100.00
36092;BME280;22147;52.388;13.390;2023-11-19T10:47:56;99797.31;;;8.75;100.00
36092;BME280;22147;52.388;13.390;2023-11-19T10:50:27;99793.53;;;8.80;100.00
36092;BME280;22147;52.388;13.390;2023-11-19T10:52:59;99793.56;;;8.92;100.00
36092;BME280;22147;52.388;13.390;2023-11-19T10:55:34;99782.09;;;9.03;100.00
36092;BME280;22147;52.388;13.390;2023-11-19T10:58:10;99786.53;;;8.95;100.00
36092;BME280;22147;52.388;13.390;2023-11-19T11:00:46;99784.25;;;8.97;100.00
36092;BME280;22147;52.388;13.390;2023-11-19T11:03:22;99788.38;;;8.91;100.00
36092;BME280;22147;52.388;13.390;2023-11-19T11:05:56;99784.81;;;8.90;100.00
36092;BME280;22147;52.388;13.390;2023-11-19T11:08:29;99787.78;;;8.85;100.00
36092;BME280;22147;52.388;13.390;2023-11-19T11:11:00;99779.81;;;8.84;100.00
36092;BME280;22147;52.388;13.390;2023-11-19T11:13:32;99777.53;;;8.86;100.00
36092;BME280;22147;52.388;13.390;2023-11-19T11:16:05;99781.31;;;8.81;100.00
36092;BME280;22147;52.388;13.390;2023-11-19T11:18:37;99768.81;;;8.75;100.00
36092;BME280;22147;52.388;13.390;2023-11-19T11:21:20;99776.97;;;8.71;100.00
36092;BME280;22147;52.388;13.390;2023-11-19T11:36:13;99789.41;;;8.65;100.00
36092;BME280;22147;52.388;13.390;2023-11-19T11:38:49;99792.19;;;8.65;100.00
36092;BME280;22147;52.388;13.390;2023-11-19T11:41:21;99793.91;;;8.70;100.00
36092;BME280;22147;52.388;13.390;2023-11-19T11:43:58;99783.75;;;8.83;100.00
36092;BME280;22147;52.388;13.390;2023-11-19T11:49:02;99775.94;;;8.97;100.00
36092;BME280;22147;52.388;13.390;2023-11-19T11:57:12;99772.19;;;9.14;100.00
36092;BME280;22147;52.388;13.390;2023-11-19T12:02:19;99775.72;;;9.35;100.00
36092;BME280;22147;52.388;13.390;2023-11-19T12:04:52;99763.50;;;9.36;100.00
36092;BME280;22147;52.388;13.390;2023-11-19T12:07:23;99765.09;;;9.37;100.00
36092;BME280;22147;52.388;13.390;2023-11-19T12:10:07;99764.56;;;9.44;100.00
36092;BME280;22147;52.388;13.390;2023-11-19T12:12:39;99770.91;;;9.45;100.00
36092;BME280;22147;52.388;13.390;2023-11-19T12:15:11;99760.94;;;9.44;100.00
36092;BME280;22147;52.388;13.390;2023-11-19T12:17:48;99766.38;;;9.40;100.00
36092;BME280;22147;52.388;13.390;2023-11-19T12:20:23;99763.50;;;9.36;100.00
36092;BME280;22147;52.388;13.390;2023-11-19T12:23:04;99767.06;;;9.37;100.00
36092;BME280;22147;52.388;13.390;2023-11-19T12:25:35;99753.53;;;9.35;100.00
36092;BME280;22147;52.388;13.390;2023-11-19T12:28:05;99765.56;;;9.40;100.00
36092;BME280;22147;52.388;13.390;2023-11-19T12:30:41;99761.88;;;9.48;100.00
36092;BME280;22147;52.388;13.390;2023-11-19T12:33:12;99767.66;;;9.43;100.00
36092;BME280;22147;52.388;13.390;2023-11-19T12:35:46;99777.56;;;9.44;100.00
36092;BME280;22147;52.388;13.390;2023-11-19T12:38:23;99762.31;;;9.37;100.00
36092;BME280;22147;52.388;13.390;2023-11-19T12:41:09;99763.50;;;9.36;100.00
36092;BME280;22147;52.388;13.390;2023-11-19T12:43:41;99764.28;;;9.37;100.00
36092;BME280;22147;52.388;13.390;2023-11-19T12:46:23;99761.19;;;9.38;100.00
36092;BME280;22147;52.388;13.390;2023-11-19T12:48:53;99765.34;;;9.45;100.00
36092;BME280;22147;52.388;13.390;2023-11-19T12:51:30;99762.25;;;9.46;100.00
36092;BME280;22147;52.388;13.390;2023-11-19T12:54:02;99759.94;;;9.48;100.00
36092;BME280;22147;52.388;13.390;2023-11-19T12:56:33;99758.78;;;9.49;100.00
36092;BME280;22147;52.388;13.390;2023-11-19T12:59:11;99771.81;;;9.49;100.00
36092;BME280;22147;52.388;13.390;2023-11-19T13:01:41;99757.25;;;9.40;100.00
36092;BME280;22147;52.388;13.390;2023-11-19T13:04:16;99772.28;;;9.38;100.00
36092;BME280;22147;52.388;13.390;2023-11-19T13:06:49;99756.31;;;9.35;100.00
36092;BME280;22147;52.388;13.390;2023-11-19T13:09:27;99765.00;;;9.34;100.00
36092;BME280;22147;52.388;13.390;2023-11-19T13:11:57;99756.53;;;9.30;100.00
36092;BME280;22147;52.388;13.390;2023-11-19T13:14:37;99764.94;;;9.22;100.00
36092;BME280;22147;52.388;13.390;2023-11-19T13:17:05;99758.34;;;9.14;100.00
36092;BME280;22147;52.388;13.390;2023-11-19T13:19:36;99760.31;;;9.13;100.00
36092;BME280;22147;52.388;13.390;2023-11-19T13:22:06;99759.94;;;9.03;100.00
36092;BME280;22147;52.388;13.390;2023-11-19T13:24:36;99761.28;;;8.96;100.00
36092;BME280;22147;52.388;13.390;2023-11-19T13:27:07;99759.00;;;8.99;100.00